sensor_id;sensor_type;location;lat;lon;timestamp;P1;durP1;ratioP1;P2;durP2;ratioP2
27642;SDS011;15053;48.618;10.024;2023-07-30T00:02:16;5.47;;;4.70;;
27642;SDS011;15053;48.618;10.024;2023-07-30T00:04:43;7.43;;;5.07;;
27642;SDS011;15053;48.618;10.024;2023-07-30T00:07:10;5.38;;;4.80;;
27642;SDS011;15053;48.618;10.024;2023-07-30T00:09:37;8.20;;;5.38;;
27642;SDS011;15053;48.618;10.024;2023-07-30T00:12:05;8.40;;;4.65;;
27642;SDS011;15053;48.618;10.024;2023-07-30T00:14:33;7.60;;;5.22;;
27642;SDS011;15053;48.618;10.024;2023-07-30T00:17:00;7.78;;;5.45;;
27642;SDS011;15053;48.618;10.024;2023-07-30T00:19:27;6.15;;;5.15;;
27642;SDS011;15053;48.618;10.024;2023-07-30T00:21:53;6.82;;;5.10;;
27642;SDS011;15053;48.618;10.024;2023-07-30T00:24:20;7.47;;;5.20;;
27642;SDS011;15053;48.618;10.024;2023-07-30T00:26:46;3.08;;;2.65;;
27642;SDS011;15053;48.618;10.024;2023-07-30T00:29:13;2.30;;;1.65;;
27642;SDS011;15053;48.618;10.024;2023-07-30T00:31:40;2.28;;;1.48;;
27642;SDS011;15053;48.618;10.024;2023-07-30T00:34:07;1.98;;;1.40;;
27642;SDS011;15053;48.618;10.024;2023-07-30T00:36:33;6.63;;;1.90;;
27642;SDS011;15053;48.618;10.024;2023-07-30T00:39:00;2.67;;;0.90;;
27642;SDS011;15053;48.618;10.024;2023-07-30T00:41:26;3.75;;;1.40;;
27642;SDS011;15053;48.618;10.024;2023-07-30T00:43:53;2.17;;;1.10;;
27642;SDS011;15053;48.618;10.024;2023-07-30T00:46:19;2.47;;;1.10;;
27642;SDS011;15053;48.618;10.024;2023-07-30T00:48:46;2.38;;;1.10;;
27642;SDS011;15053;48.618;10.024;2023-07-30T00:51:14;1.85;;;0.90;;
27642;SDS011;15053;48.618;10.024;2023-07-30T00:53:42;1.80;;;1.00;;
27642;SDS011;15053;48.618;10.024;2023-07-30T00:56:09;1.25;;;0.80;;
27642;SDS011;15053;48.618;10.024;2023-07-30T00:58:35;1.52;;;0.90;;
27642;SDS011;15053;48.618;10.024;2023-07-30T01:01:02;0.60;;;0.60;;
27642;SDS011;15053;48.618;10.024;2023-07-30T01:03:29;1.60;;;1.00;;
27642;SDS011;15053;48.618;10.024;2023-07-30T01:05:56;3.55;;;0.90;;
27642;SDS011;15053;48.618;10.024;2023-07-30T01:08:23;1.85;;;0.95;;
27642;SDS011;15053;48.618;10.024;2023-07-30T01:10:49;1.20;;;1.10;;
27642;SDS011;15053;48.618;10.024;2023-07-30T01:13:17;2.10;;;1.00;;
27642;SDS011;15053;48.618;10.024;2023-07-30T01:15:44;1.48;;;0.88;;
27642;SDS011;15053;48.618;10.024;2023-07-30T01:18:11;0.85;;;0.85;;
27642;SDS011;15053;48.618;10.024;2023-07-30T01:20:38;2.50;;;0.93;;
27642;SDS011;15053;48.618;10.024;2023-07-30T01:23:04;1.58;;;0.98;;
27642;SDS011;15053;48.618;10.024;2023-07-30T01:25:33;2.58;;;0.70;;
27642;SDS011;15053;48.618;10.024;2023-07-30T01:28:02;6.95;;;0.80;;
27642;SDS011;15053;48.618;10.024;2023-07-30T01:30:41;0.57;;;0.52;;
27642;SDS011;15053;48.618;10.024;2023-07-30T01:33:10;4.10;;;1.63;;
27642;SDS011;15053;48.618;10.024;2023-07-30T01:35:37;1.90;;;1.23;;
27642;SDS011;15053;48.618;10.024;2023-07-30T01:38:04;2.15;;;0.95;;
27642;SDS011;15053;48.618;10.024;2023-07-30T01:40:33;2.17;;;0.80;;
27642;SDS011;15053;48.618;10.024;2023-07-30T01:43:00;1.80;;;1.10;;
27642;SDS011;15053;48.618;10.024;2023-07-30T01:45:26;1.60;;;1.20;;
27642;SDS011;15053;48.618;10.024;2023-07-30T01:47:53;3.47;;;0.75;;
27642;SDS011;15053;48.618;10.024;2023-07-30T01:50:20;0.93;;;0.75;;
27642;SDS011;15053;48.618;10.024;2023-07-30T01:52:46;2.63;;;1.27;;
27642;SDS011;15053;48.618;10.024;2023-07-30T01:55:13;1.83;;;1.15;;
27642;SDS011;15053;48.618;10.024;2023-07-30T01:57:40;2.35;;;1.50;;
27642;SDS011;15053;48.618;10.024;2023-07-30T02:03:02;2.15;;;1.58;;
27642;SDS011;15053;48.618;10.024;2023-07-30T02:05:29;3.63;;;1.85;;
27642;SDS011;15053;48.618;10.024;2023-07-30T02:07:55;7.35;;;2.20;;
27642;SDS011;15053;48.618;10.024;2023-07-30T02:10:24;5.05;;;2.28;;
27642;SDS011;15053;48.618;10.024;2023-07-30T02:12:51;3.47;;;2.67;;
27642;SDS011;15053;48.618;10.024;2023-07-30T02:15:18;3.72;;;2.65;;
27642;SDS011;15053;48.618;10.024;2023-07-30T02:17:45;4.05;;;2.80;;
27642;SDS011;15053;48.618;10.024;2023-07-30T02:20:11;7.35;;;3.38;;
27642;SDS011;15053;48.618;10.024;2023-07-30T02:22:38;6.90;;;3.90;;
27642;SDS011;15053;48.618;10.024;2023-07-30T02:25:05;6.10;;;3.20;;
27642;SDS011;15053;48.618;10.024;2023-07-30T02:27:32;5.30;;;3.90;;
27642;SDS011;15053;48.618;10.024;2023-07-30T02:29:58;5.00;;;3.40;;
27642;SDS011;15053;48.618;10.024;2023-07-30T02:32:25;4.63;;;3.78;;
27642;SDS011;15053;48.618;10.024;2023-07-30T02:34:51;7.15;;;3.60;;
27642;SDS011;15053;48.618;10.024;2023-07-30T02:37:18;4.03;;;3.53;;
27642;SDS011;15053;48.618;10.024;2023-07-30T02:39:44;6.30;;;3.88;;
27642;SDS011;15053;48.618;10.024;2023-07-30T02:42:11;4.50;;;3.58;;
27642;SDS011;15053;48.618;10.024;2023-07-30T02:44:37;5.65;;;3.97;;
27642;SDS011;15053;48.618;10.024;2023-07-30T02:47:04;6.85;;;3.97;;
27642;SDS011;15053;48.618;10.024;2023-07-30T02:49:31;4.05;;;3.63;;
27642;SDS011;15053;48.618;10.024;2023-07-30T02:51:57;3.88;;;3.50;;
27642;SDS011;15053;48.618;10.024;2023-07-30T02:54:24;4.07;;;3.03;;
27642;SDS011;15053;48.618;10.024;2023-07-30T02:56:50;5.10;;;3.55;;
27642;SDS011;15053;48.618;10.024;2023-07-30T02:59:17;4.65;;;3.60;;
27642;SDS011;15053;48.618;10.024;2023-07-30T03:01:43;3.70;;;3.17;;
27642;SDS011;15053;48.618;10.024;2023-07-30T03:04:10;5.90;;;3.35;;
27642;SDS011;15053;48.618;10.024;2023-07-30T03:06:37;6.13;;;4.10;;
27642;SDS011;15053;48.618;10.024;2023-07-30T03:09:04;5.05;;;3.80;;
27642;SDS011;15053;48.618;10.024;2023-07-30T03:11:30;4.95;;;3.60;;
27642;SDS011;15053;48.618;10.024;2023-07-30T03:13:57;9.60;;;3.80;;
27642;SDS011;15053;48.618;10.024;2023-07-30T03:16:24;6.70;;;3.53;;
27642;SDS011;15053;48.618;10.024;2023-07-30T03:18:50;4.68;;;3.70;;
27642;SDS011;15053;48.618;10.024;2023-07-30T03:21:17;6.50;;;3.42;;
27642;SDS011;15053;48.618;10.024;2023-07-30T03:23:43;4.97;;;3.60;;
27642;SDS011;15053;48.618;10.024;2023-07-30T03:26:11;7.60;;;3.50;;
27642;SDS011;15053;48.618;10.024;2023-07-30T03:28:37;4.55;;;3.58;;
27642;SDS011;15053;48.618;10.024;2023-07-30T03:31:06;8.27;;;4.47;;
27642;SDS011;15053;48.618;10.024;2023-07-30T03:33:33;6.18;;;3.72;;
27642;SDS011;15053;48.618;10.024;2023-07-30T03:36:00;6.60;;;4.05;;
27642;SDS011;15053;48.618;10.024;2023-07-30T03:38:27;4.20;;;3.72;;
27642;SDS011;15053;48.618;10.024;2023-07-30T03:40:55;4.90;;;3.60;;
27642;SDS011;15053;48.618;10.024;2023-07-30T03:43:21;7.00;;;4.13;;
27642;SDS011;15053;48.618;10.024;2023-07-30T03:45:48;7.18;;;4.22;;
27642;SDS011;15053;48.618;10.024;2023-07-30T03:48:15;4.60;;;3.25;;
27642;SDS011;15053;48.618;10.024;2023-07-30T03:50:41;4.97;;;3.67;;
27642;SDS011;15053;48.618;10.024;2023-07-30T03:53:08;6.60;;;3.85;;
27642;SDS011;15053;48.618;10.024;2023-07-30T03:55:35;4.65;;;3.78;;
27642;SDS011;15053;48.618;10.024;2023-07-30T03:58:01;4.63;;;3.90;;
27642;SDS011;15053;48.618;10.024;2023-07-30T04:00:28;4.68;;;3.88;;
27642;SDS011;15053;48.618;10.024;2023-07-30T04:02:55;4.97;;;4.30;;
27642;SDS011;15053;48.618;10.024;2023-07-30T04:05:22;4.93;;;4.00;;
27642;SDS011;15053;48.618;10.024;2023-07-30T04:07:48;6.38;;;4.05;;
27642;SDS011;15053;48.618;10.024;2023-07-30T04:10:15;7.78;;;4.65;;
27642;SDS011;15053;48.618;10.024;2023-07-30T04:12:42;6.85;;;3.55;;
27642;SDS011;15053;48.618;10.024;2023-07-30T04:15:08;8.73;;;3.85;;
27642;SDS011;15053;48.618;10.024;2023-07-30T04:17:36;5.82;;;4.00;;
27642;SDS011;15053;48.618;10.024;2023-07-30T04:20:04;6.38;;;4.03;;
27642;SDS011;15053;48.618;10.024;2023-07-30T04:22:31;7.57;;;4.05;;
27642;SDS011;15053;48.618;10.024;2023-07-30T04:24:57;4.43;;;3.75;;
27642;SDS011;15053;48.618;10.024;2023-07-30T04:27:24;7.30;;;3.88;;
27642;SDS011;15053;48.618;10.024;2023-07-30T04:29:55;4.93;;;3.70;;
27642;SDS011;15053;48.618;10.024;2023-07-30T04:32:22;7.35;;;4.18;;
27642;SDS011;15053;48.618;10.024;2023-07-30T04:34:49;7.07;;;4.10;;
27642;SDS011;15053;48.618;10.024;2023-07-30T04:37:16;5.20;;;4.32;;
27642;SDS011;15053;48.618;10.024;2023-07-30T04:39:42;8.75;;;4.53;;
27642;SDS011;15053;48.618;10.024;2023-07-30T04:42:09;10.05;;;5.05;;
27642;SDS011;15053;48.618;10.024;2023-07-30T04:44:36;15.02;;;5.03;;
27642;SDS011;15053;48.618;10.024;2023-07-30T04:47:09;11.68;;;4.68;;
27642;SDS011;15053;48.618;10.024;2023-07-30T04:49:35;12.05;;;4.43;;
27642;SDS011;15053;48.618;10.024;2023-07-30T04:52:03;9.88;;;5.80;;
27642;SDS011;15053;48.618;10.024;2023-07-30T04:54:30;10.00;;;5.10;;
27642;SDS011;15053;48.618;10.024;2023-07-30T04:56:56;8.35;;;5.05;;
27642;SDS011;15053;48.618;10.024;2023-07-30T04:59:23;8.63;;;4.90;;
27642;SDS011;15053;48.618;10.024;2023-07-30T05:01:49;11.45;;;5.10;;
27642;SDS011;15053;48.618;10.024;2023-07-30T05:04:16;7.72;;;4.43;;
27642;SDS011;15053;48.618;10.024;2023-07-30T05:06:43;7.03;;;4.53;;
27642;SDS011;15053;48.618;10.024;2023-07-30T05:09:09;6.80;;;4.47;;
27642;SDS011;15053;48.618;10.024;2023-07-30T05:11:40;4.85;;;3.63;;
27642;SDS011;15053;48.618;10.024;2023-07-30T05:14:07;6.53;;;3.90;;
27642;SDS011;15053;48.618;10.024;2023-07-30T05:16:33;5.45;;;4.40;;
27642;SDS011;15053;48.618;10.024;2023-07-30T05:19:00;5.72;;;3.75;;
27642;SDS011;15053;48.618;10.024;2023-07-30T05:21:26;6.22;;;3.72;;
27642;SDS011;15053;48.618;10.024;2023-07-30T05:23:53;5.88;;;3.45;;
27642;SDS011;15053;48.618;10.024;2023-07-30T05:26:19;5.75;;;4.07;;
27642;SDS011;15053;48.618;10.024;2023-07-30T05:28:46;6.05;;;3.90;;
27642;SDS011;15053;48.618;10.024;2023-07-30T05:31:12;7.30;;;3.97;;
27642;SDS011;15053;48.618;10.024;2023-07-30T05:33:39;5.10;;;3.70;;
27642;SDS011;15053;48.618;10.024;2023-07-30T05:36:05;4.57;;;3.50;;
27642;SDS011;15053;48.618;10.024;2023-07-30T05:38:32;4.15;;;3.35;;
27642;SDS011;15053;48.618;10.024;2023-07-30T05:40:59;3.92;;;3.20;;
27642;SDS011;15053;48.618;10.024;2023-07-30T05:43:25;5.20;;;3.35;;
27642;SDS011;15053;48.618;10.024;2023-07-30T05:45:52;5.28;;;3.70;;
27642;SDS011;15053;48.618;10.024;2023-07-30T05:48:18;7.25;;;3.90;;
27642;SDS011;15053;48.618;10.024;2023-07-30T05:50:45;4.13;;;3.55;;
27642;SDS011;15053;48.618;10.024;2023-07-30T05:53:11;6.07;;;3.67;;
27642;SDS011;15053;48.618;10.024;2023-07-30T05:55:38;6.70;;;3.38;;
27642;SDS011;15053;48.618;10.024;2023-07-30T05:58:04;5.03;;;3.28;;
27642;SDS011;15053;48.618;10.024;2023-07-30T06:00:31;5.18;;;3.30;;
27642;SDS011;15053;48.618;10.024;2023-07-30T06:02:58;5.53;;;3.45;;
27642;SDS011;15053;48.618;10.024;2023-07-30T06:05:24;6.80;;;2.90;;
27642;SDS011;15053;48.618;10.024;2023-07-30T06:07:51;6.18;;;3.05;;
27642;SDS011;15053;48.618;10.024;2023-07-30T06:10:17;2.90;;;2.60;;
27642;SDS011;15053;48.618;10.024;2023-07-30T06:12:44;4.32;;;2.83;;
27642;SDS011;15053;48.618;10.024;2023-07-30T06:15:10;3.80;;;2.70;;
27642;SDS011;15053;48.618;10.024;2023-07-30T06:17:37;6.70;;;2.47;;
27642;SDS011;15053;48.618;10.024;2023-07-30T06:20:04;3.10;;;2.72;;
27642;SDS011;15053;48.618;10.024;2023-07-30T06:22:31;5.78;;;3.30;;
27642;SDS011;15053;48.618;10.024;2023-07-30T06:24:58;4.72;;;2.60;;
27642;SDS011;15053;48.618;10.024;2023-07-30T06:27:25;3.95;;;2.67;;
27642;SDS011;15053;48.618;10.024;2023-07-30T06:29:51;3.83;;;2.53;;
27642;SDS011;15053;48.618;10.024;2023-07-30T06:32:18;4.15;;;2.70;;
27642;SDS011;15053;48.618;10.024;2023-07-30T06:34:44;2.80;;;2.50;;
27642;SDS011;15053;48.618;10.024;2023-07-30T06:37:14;2.85;;;2.47;;
27642;SDS011;15053;48.618;10.024;2023-07-30T06:39:40;4.20;;;2.95;;
27642;SDS011;15053;48.618;10.024;2023-07-30T06:42:07;3.15;;;2.70;;
27642;SDS011;15053;48.618;10.024;2023-07-30T06:44:35;4.32;;;2.42;;
27642;SDS011;15053;48.618;10.024;2023-07-30T06:47:01;3.65;;;2.65;;
27642;SDS011;15053;48.618;10.024;2023-07-30T06:49:28;4.72;;;2.83;;
27642;SDS011;15053;48.618;10.024;2023-07-30T06:51:54;3.35;;;2.70;;
27642;SDS011;15053;48.618;10.024;2023-07-30T06:54:21;3.50;;;2.70;;
27642;SDS011;15053;48.618;10.024;2023-07-30T06:56:48;3.08;;;2.72;;
27642;SDS011;15053;48.618;10.024;2023-07-30T06:59:15;3.35;;;3.05;;
27642;SDS011;15053;48.618;10.024;2023-07-30T07:01:41;4.20;;;2.63;;
27642;SDS011;15053;48.618;10.024;2023-07-30T07:04:08;4.10;;;2.65;;
27642;SDS011;15053;48.618;10.024;2023-07-30T07:06:35;3.20;;;2.53;;
27642;SDS011;15053;48.618;10.024;2023-07-30T07:09:01;3.92;;;2.45;;
27642;SDS011;15053;48.618;10.024;2023-07-30T07:11:28;3.97;;;2.60;;
27642;SDS011;15053;48.618;10.024;2023-07-30T07:13:55;3.15;;;2.63;;
27642;SDS011;15053;48.618;10.024;2023-07-30T07:16:21;2.67;;;2.30;;
27642;SDS011;15053;48.618;10.024;2023-07-30T07:18:48;3.45;;;2.30;;
27642;SDS011;15053;48.618;10.024;2023-07-30T07:21:15;3.30;;;2.72;;
27642;SDS011;15053;48.618;10.024;2023-07-30T07:23:41;3.25;;;2.30;;
27642;SDS011;15053;48.618;10.024;2023-07-30T07:26:08;2.42;;;2.22;;
27642;SDS011;15053;48.618;10.024;2023-07-30T07:28:35;2.78;;;2.45;;
27642;SDS011;15053;48.618;10.024;2023-07-30T07:31:02;2.60;;;2.00;;
27642;SDS011;15053;48.618;10.024;2023-07-30T07:33:28;3.38;;;2.30;;
27642;SDS011;15053;48.618;10.024;2023-07-30T07:36:05;2.60;;;2.40;;
27642;SDS011;15053;48.618;10.024;2023-07-30T07:38:33;3.03;;;2.42;;
27642;SDS011;15053;48.618;10.024;2023-07-30T07:41:00;3.88;;;2.97;;
27642;SDS011;15053;48.618;10.024;2023-07-30T07:43:27;3.38;;;2.80;;
27642;SDS011;15053;48.618;10.024;2023-07-30T07:45:54;5.32;;;2.45;;
27642;SDS011;15053;48.618;10.024;2023-07-30T07:48:21;4.05;;;2.38;;
27642;SDS011;15053;48.618;10.024;2023-07-30T07:50:47;3.60;;;2.47;;
27642;SDS011;15053;48.618;10.024;2023-07-30T07:53:14;2.63;;;2.40;;
27642;SDS011;15053;48.618;10.024;2023-07-30T07:55:40;2.42;;;2.22;;
27642;SDS011;15053;48.618;10.024;2023-07-30T07:58:07;3.72;;;2.22;;
27642;SDS011;15053;48.618;10.024;2023-07-30T08:00:33;3.40;;;2.33;;
27642;SDS011;15053;48.618;10.024;2023-07-30T08:03:00;2.25;;;2.03;;
27642;SDS011;15053;48.618;10.024;2023-07-30T08:05:26;3.05;;;2.30;;
27642;SDS011;15053;48.618;10.024;2023-07-30T08:07:53;7.38;;;2.50;;
27642;SDS011;15053;48.618;10.024;2023-07-30T08:10:19;5.68;;;2.45;;
27642;SDS011;15053;48.618;10.024;2023-07-30T08:12:46;2.10;;;1.95;;
27642;SDS011;15053;48.618;10.024;2023-07-30T08:15:15;2.83;;;1.77;;
27642;SDS011;15053;48.618;10.024;2023-07-30T08:17:41;2.17;;;1.98;;
27642;SDS011;15053;48.618;10.024;2023-07-30T08:20:08;2.08;;;1.73;;
27642;SDS011;15053;48.618;10.024;2023-07-30T08:22:34;3.30;;;1.90;;
27642;SDS011;15053;48.618;10.024;2023-07-30T08:25:01;1.80;;;1.70;;
27642;SDS011;15053;48.618;10.024;2023-07-30T08:27:29;2.25;;;1.55;;
27642;SDS011;15053;48.618;10.024;2023-07-30T08:29:55;2.55;;;1.80;;
27642;SDS011;15053;48.618;10.024;2023-07-30T08:32:22;1.73;;;1.63;;
27642;SDS011;15053;48.618;10.024;2023-07-30T08:34:48;2.05;;;1.83;;
27642;SDS011;15053;48.618;10.024;2023-07-30T08:37:15;1.90;;;1.70;;
27642;SDS011;15053;48.618;10.024;2023-07-30T08:39:42;3.53;;;1.42;;
27642;SDS011;15053;48.618;10.024;2023-07-30T08:42:08;1.67;;;1.40;;
27642;SDS011;15053;48.618;10.024;2023-07-30T08:44:35;1.63;;;1.45;;
27642;SDS011;15053;48.618;10.024;2023-07-30T08:47:01;1.92;;;1.60;;
27642;SDS011;15053;48.618;10.024;2023-07-30T08:49:30;2.67;;;1.70;;
27642;SDS011;15053;48.618;10.024;2023-07-30T08:51:59;4.53;;;1.80;;
27642;SDS011;15053;48.618;10.024;2023-07-30T08:54:31;4.45;;;1.80;;
27642;SDS011;15053;48.618;10.024;2023-07-30T08:56:58;2.63;;;2.00;;
27642;SDS011;15053;48.618;10.024;2023-07-30T08:59:25;4.40;;;2.35;;
27642;SDS011;15053;48.618;10.024;2023-07-30T09:01:56;2.97;;;2.00;;
27642;SDS011;15053;48.618;10.024;2023-07-30T09:04:24;3.30;;;2.25;;
27642;SDS011;15053;48.618;10.024;2023-07-30T09:06:51;2.70;;;2.05;;
27642;SDS011;15053;48.618;10.024;2023-07-30T09:09:19;3.53;;;2.40;;
27642;SDS011;15053;48.618;10.024;2023-07-30T09:11:50;3.08;;;2.28;;
27642;SDS011;15053;48.618;10.024;2023-07-30T09:14:20;2.72;;;2.13;;
27642;SDS011;15053;48.618;10.024;2023-07-30T09:16:47;2.95;;;1.65;;
27642;SDS011;15053;48.618;10.024;2023-07-30T09:19:17;3.45;;;2.10;;
27642;SDS011;15053;48.618;10.024;2023-07-30T09:21:44;2.13;;;1.50;;
27642;SDS011;15053;48.618;10.024;2023-07-30T09:24:10;2.30;;;2.10;;
27642;SDS011;15053;48.618;10.024;2023-07-30T09:26:44;2.95;;;2.10;;
27642;SDS011;15053;48.618;10.024;2023-07-30T09:29:12;2.50;;;2.10;;
27642;SDS011;15053;48.618;10.024;2023-07-30T09:31:43;2.58;;;1.92;;
27642;SDS011;15053;48.618;10.024;2023-07-30T09:34:23;2.65;;;2.10;;
27642;SDS011;15053;48.618;10.024;2023-07-30T09:36:52;2.50;;;1.90;;
27642;SDS011;15053;48.618;10.024;2023-07-30T09:39:23;2.65;;;1.80;;
27642;SDS011;15053;48.618;10.024;2023-07-30T09:41:51;2.35;;;1.73;;
27642;SDS011;15053;48.618;10.024;2023-07-30T09:44:25;2.25;;;2.05;;
27642;SDS011;15053;48.618;10.024;2023-07-30T09:46:51;2.50;;;2.30;;
27642;SDS011;15053;48.618;10.024;2023-07-30T09:49:18;2.20;;;2.00;;
27642;SDS011;15053;48.618;10.024;2023-07-30T09:51:45;4.10;;;2.60;;
27642;SDS011;15053;48.618;10.024;2023-07-30T09:54:12;2.50;;;2.00;;
27642;SDS011;15053;48.618;10.024;2023-07-30T09:56:40;2.15;;;1.77;;
27642;SDS011;15053;48.618;10.024;2023-07-30T09:59:08;2.22;;;1.83;;
27642;SDS011;15053;48.618;10.024;2023-07-30T10:01:41;2.33;;;1.92;;
27642;SDS011;15053;48.618;10.024;2023-07-30T10:04:13;4.47;;;2.38;;
27642;SDS011;15053;48.618;10.024;2023-07-30T10:06:41;3.83;;;1.80;;
27642;SDS011;15053;48.618;10.024;2023-07-30T10:09:11;2.97;;;1.90;;
27642;SDS011;15053;48.618;10.024;2023-07-30T10:11:39;2.67;;;2.20;;
27642;SDS011;15053;48.618;10.024;2023-07-30T10:14:07;3.15;;;2.17;;
27642;SDS011;15053;48.618;10.024;2023-07-30T10:16:34;2.42;;;1.70;;
27642;SDS011;15053;48.618;10.024;2023-07-30T10:19:01;1.95;;;1.80;;
27642;SDS011;15053;48.618;10.024;2023-07-30T10:21:28;2.85;;;1.92;;
27642;SDS011;15053;48.618;10.024;2023-07-30T10:23:58;2.30;;;1.80;;
27642;SDS011;15053;48.618;10.024;2023-07-30T10:26:32;3.17;;;1.70;;
27642;SDS011;15053;48.618;10.024;2023-07-30T10:31:40;2.75;;;1.88;;
27642;SDS011;15053;48.618;10.024;2023-07-30T10:34:19;2.83;;;1.90;;
27642;SDS011;15053;48.618;10.024;2023-07-30T10:36:46;4.22;;;1.70;;
27642;SDS011;15053;48.618;10.024;2023-07-30T10:39:15;3.80;;;2.10;;
27642;SDS011;15053;48.618;10.024;2023-07-30T10:41:46;4.32;;;1.83;;
27642;SDS011;15053;48.618;10.024;2023-07-30T10:44:25;2.92;;;1.98;;
27642;SDS011;15053;48.618;10.024;2023-07-30T10:46:53;4.38;;;1.90;;
27642;SDS011;15053;48.618;10.024;2023-07-30T10:49:21;3.83;;;2.00;;
27642;SDS011;15053;48.618;10.024;2023-07-30T10:51:48;2.28;;;1.98;;
27642;SDS011;15053;48.618;10.024;2023-07-30T10:54:15;2.75;;;1.85;;
27642;SDS011;15053;48.618;10.024;2023-07-30T10:56:42;1.63;;;1.35;;
27642;SDS011;15053;48.618;10.024;2023-07-30T10:59:09;1.02;;;0.90;;
27642;SDS011;15053;48.618;10.024;2023-07-30T11:01:36;2.05;;;1.42;;
27642;SDS011;15053;48.618;10.024;2023-07-30T11:04:08;1.60;;;1.50;;
27642;SDS011;15053;48.618;10.024;2023-07-30T11:06:36;2.33;;;1.73;;
27642;SDS011;15053;48.618;10.024;2023-07-30T11:09:04;16.13;;;2.13;;
27642;SDS011;15053;48.618;10.024;2023-07-30T11:11:32;1.98;;;1.40;;
27642;SDS011;15053;48.618;10.024;2023-07-30T11:13:58;3.28;;;2.00;;
27642;SDS011;15053;48.618;10.024;2023-07-30T11:16:26;2.78;;;1.70;;
27642;SDS011;15053;48.618;10.024;2023-07-30T11:18:53;3.10;;;2.42;;
27642;SDS011;15053;48.618;10.024;2023-07-30T11:21:19;3.25;;;1.90;;
27642;SDS011;15053;48.618;10.024;2023-07-30T11:23:46;3.30;;;1.92;;
27642;SDS011;15053;48.618;10.024;2023-07-30T11:26:22;2.33;;;1.88;;
27642;SDS011;15053;48.618;10.024;2023-07-30T11:28:49;2.63;;;1.83;;
27642;SDS011;15053;48.618;10.024;2023-07-30T11:31:16;2.33;;;1.70;;
27642;SDS011;15053;48.618;10.024;2023-07-30T11:33:48;2.80;;;2.15;;
27642;SDS011;15053;48.618;10.024;2023-07-30T11:36:22;2.47;;;1.80;;
27642;SDS011;15053;48.618;10.024;2023-07-30T11:38:51;3.78;;;1.92;;
27642;SDS011;15053;48.618;10.024;2023-07-30T11:41:22;4.20;;;2.13;;
27642;SDS011;15053;48.618;10.024;2023-07-30T11:43:50;3.38;;;2.28;;
27642;SDS011;15053;48.618;10.024;2023-07-30T11:46:18;1.80;;;1.67;;
27642;SDS011;15053;48.618;10.024;2023-07-30T11:48:47;1.92;;;1.80;;
27642;SDS011;15053;48.618;10.024;2023-07-30T11:51:21;2.63;;;1.95;;
27642;SDS011;15053;48.618;10.024;2023-07-30T11:56:23;3.03;;;2.13;;
27642;SDS011;15053;48.618;10.024;2023-07-30T11:59:01;1.92;;;1.70;;
27642;SDS011;15053;48.618;10.024;2023-07-30T12:01:32;6.35;;;2.08;;
27642;SDS011;15053;48.618;10.024;2023-07-30T12:04:01;2.20;;;2.00;;
27642;SDS011;15053;48.618;10.024;2023-07-30T12:09:14;4.20;;;2.20;;
27642;SDS011;15053;48.618;10.024;2023-07-30T12:11:47;3.80;;;2.38;;
27642;SDS011;15053;48.618;10.024;2023-07-30T12:14:16;6.45;;;2.00;;
27642;SDS011;15053;48.618;10.024;2023-07-30T12:16:43;2.55;;;2.00;;
27642;SDS011;15053;48.618;10.024;2023-07-30T12:19:10;2.45;;;2.00;;
27642;SDS011;15053;48.618;10.024;2023-07-30T12:21:36;5.10;;;2.17;;
27642;SDS011;15053;48.618;10.024;2023-07-30T12:24:05;2.88;;;2.10;;
27642;SDS011;15053;48.618;10.024;2023-07-30T12:26:31;4.07;;;2.00;;
27642;SDS011;15053;48.618;10.024;2023-07-30T12:28:58;2.72;;;2.28;;
27642;SDS011;15053;48.618;10.024;2023-07-30T12:31:24;4.10;;;1.80;;
27642;SDS011;15053;48.618;10.024;2023-07-30T12:33:51;2.33;;;1.83;;
27642;SDS011;15053;48.618;10.024;2023-07-30T12:36:18;4.00;;;2.35;;
27642;SDS011;15053;48.618;10.024;2023-07-30T12:38:44;3.45;;;2.20;;
27642;SDS011;15053;48.618;10.024;2023-07-30T12:41:12;2.75;;;2.05;;
27642;SDS011;15053;48.618;10.024;2023-07-30T12:43:39;3.55;;;2.00;;
27642;SDS011;15053;48.618;10.024;2023-07-30T12:46:05;2.28;;;1.95;;
27642;SDS011;15053;48.618;10.024;2023-07-30T12:48:32;7.43;;;2.13;;
27642;SDS011;15053;48.618;10.024;2023-07-30T12:50:59;2.30;;;2.10;;
27642;SDS011;15053;48.618;10.024;2023-07-30T12:53:25;3.25;;;2.17;;
27642;SDS011;15053;48.618;10.024;2023-07-30T12:55:52;3.60;;;2.40;;
27642;SDS011;15053;48.618;10.024;2023-07-30T12:58:19;2.67;;;2.22;;
27642;SDS011;15053;48.618;10.024;2023-07-30T13:00:45;4.50;;;2.30;;
27642;SDS011;15053;48.618;10.024;2023-07-30T13:03:12;2.58;;;2.10;;
27642;SDS011;15053;48.618;10.024;2023-07-30T13:05:38;2.63;;;2.35;;
27642;SDS011;15053;48.618;10.024;2023-07-30T13:08:05;6.03;;;2.78;;
27642;SDS011;15053;48.618;10.024;2023-07-30T13:10:31;4.00;;;2.65;;
27642;SDS011;15053;48.618;10.024;2023-07-30T13:12:58;3.17;;;2.70;;
27642;SDS011;15053;48.618;10.024;2023-07-30T13:15:24;4.70;;;2.78;;
27642;SDS011;15053;48.618;10.024;2023-07-30T13:17:51;3.65;;;2.13;;
27642;SDS011;15053;48.618;10.024;2023-07-30T13:20:18;3.88;;;2.75;;
27642;SDS011;15053;48.618;10.024;2023-07-30T13:22:45;3.22;;;2.45;;
27642;SDS011;15053;48.618;10.024;2023-07-30T13:25:12;4.25;;;2.42;;
27642;SDS011;15053;48.618;10.024;2023-07-30T13:27:38;3.45;;;2.40;;
27642;SDS011;15053;48.618;10.024;2023-07-30T13:30:05;3.17;;;2.40;;
27642;SDS011;15053;48.618;10.024;2023-07-30T13:32:32;4.45;;;2.25;;
27642;SDS011;15053;48.618;10.024;2023-07-30T13:34:59;5.10;;;2.50;;
27642;SDS011;15053;48.618;10.024;2023-07-30T13:37:25;3.33;;;2.13;;
27642;SDS011;15053;48.618;10.024;2023-07-30T13:39:52;3.63;;;2.10;;
27642;SDS011;15053;48.618;10.024;2023-07-30T13:42:18;2.92;;;2.20;;
27642;SDS011;15053;48.618;10.024;2023-07-30T13:44:45;4.13;;;2.60;;
27642;SDS011;15053;48.618;10.024;2023-07-30T13:47:12;2.65;;;2.17;;
27642;SDS011;15053;48.618;10.024;2023-07-30T13:49:40;4.03;;;2.47;;
27642;SDS011;15053;48.618;10.024;2023-07-30T13:52:07;3.60;;;2.17;;
27642;SDS011;15053;48.618;10.024;2023-07-30T13:54:33;2.88;;;2.13;;
27642;SDS011;15053;48.618;10.024;2023-07-30T13:57:03;2.47;;;1.88;;
27642;SDS011;15053;48.618;10.024;2023-07-30T13:59:31;2.83;;;2.00;;
27642;SDS011;15053;48.618;10.024;2023-07-30T14:01:57;3.85;;;2.30;;
27642;SDS011;15053;48.618;10.024;2023-07-30T14:04:24;3.90;;;2.38;;
27642;SDS011;15053;48.618;10.024;2023-07-30T14:06:50;4.60;;;2.65;;
27642;SDS011;15053;48.618;10.024;2023-07-30T14:09:17;3.28;;;2.40;;
27642;SDS011;15053;48.618;10.024;2023-07-30T14:11:44;3.75;;;2.28;;
27642;SDS011;15053;48.618;10.024;2023-07-30T14:14:12;2.58;;;2.38;;
27642;SDS011;15053;48.618;10.024;2023-07-30T14:16:39;5.13;;;2.92;;
27642;SDS011;15053;48.618;10.024;2023-07-30T14:19:06;3.10;;;2.30;;
27642;SDS011;15053;48.618;10.024;2023-07-30T14:21:33;3.75;;;1.92;;
27642;SDS011;15053;48.618;10.024;2023-07-30T14:23:59;3.63;;;2.28;;
27642;SDS011;15053;48.618;10.024;2023-07-30T14:26:26;9.23;;;2.50;;
27642;SDS011;15053;48.618;10.024;2023-07-30T14:28:52;5.72;;;2.20;;
27642;SDS011;15053;48.618;10.024;2023-07-30T14:31:19;3.30;;;2.53;;
27642;SDS011;15053;48.618;10.024;2023-07-30T14:33:45;3.42;;;2.45;;
27642;SDS011;15053;48.618;10.024;2023-07-30T14:36:12;2.63;;;2.30;;
27642;SDS011;15053;48.618;10.024;2023-07-30T14:38:38;3.50;;;2.53;;
27642;SDS011;15053;48.618;10.024;2023-07-30T14:41:05;3.50;;;2.53;;
27642;SDS011;15053;48.618;10.024;2023-07-30T14:43:32;2.85;;;2.40;;
27642;SDS011;15053;48.618;10.024;2023-07-30T14:45:59;2.90;;;2.60;;